sensor_id;sensor_type;location;lat;lon;timestamp;P1;durP1;ratioP1;P2;durP2;ratioP2
79478;SDS011;68943;49.472;17.970;2023-05-23T00:01:43;12.95;;;7.03;;
79478;SDS011;68943;49.472;17.970;2023-05-23T00:04:10;12.00;;;7.93;;
79478;SDS011;68943;49.472;17.970;2023-05-23T00:06:42;12.25;;;7.38;;
79478;SDS011;68943;49.472;17.970;2023-05-23T00:09:14;14.20;;;7.05;;
79478;SDS011;68943;49.472;17.970;2023-05-23T00:11:41;11.07;;;7.22;;
79478;SDS011;68943;49.472;17.970;2023-05-23T00:14:14;11.23;;;7.72;;
79478;SDS011;68943;49.472;17.970;2023-05-23T00:16:41;9.32;;;6.53;;
79478;SDS011;68943;49.472;17.970;2023-05-23T00:19:09;13.00;;;7.03;;
79478;SDS011;68943;49.472;17.970;2023-05-23T00:21:35;10.75;;;6.97;;
79478;SDS011;68943;49.472;17.970;2023-05-23T00:24:02;10.88;;;6.15;;
79478;SDS011;68943;49.472;17.970;2023-05-23T00:26:28;11.00;;;6.88;;
79478;SDS011;68943;49.472;17.970;2023-05-23T00:28:54;11.88;;;6.47;;
79478;SDS011;68943;49.472;17.970;2023-05-23T00:31:21;9.55;;;6.70;;
79478;SDS011;68943;49.472;17.970;2023-05-23T00:33:47;15.05;;;7.18;;
79478;SDS011;68943;49.472;17.970;2023-05-23T00:36:13;12.25;;;6.97;;
79478;SDS011;68943;49.472;17.970;2023-05-23T00:38:39;11.00;;;6.97;;
79478;SDS011;68943;49.472;17.970;2023-05-23T00:41:05;10.40;;;5.97;;
79478;SDS011;68943;49.472;17.970;2023-05-23T00:43:31;15.55;;;6.25;;
79478;SDS011;68943;49.472;17.970;2023-05-23T00:45:57;10.10;;;5.97;;
79478;SDS011;68943;49.472;17.970;2023-05-23T00:48:24;10.23;;;6.38;;
79478;SDS011;68943;49.472;17.970;2023-05-23T00:50:50;9.23;;;6.03;;
79478;SDS011;68943;49.472;17.970;2023-05-23T00:53:17;9.63;;;6.82;;
79478;SDS011;68943;49.472;17.970;2023-05-23T00:55:43;10.82;;;7.43;;
79478;SDS011;68943;49.472;17.970;2023-05-23T00:58:10;11.48;;;6.88;;
79478;SDS011;68943;49.472;17.970;2023-05-23T01:00:37;11.60;;;7.38;;
79478;SDS011;68943;49.472;17.970;2023-05-23T01:03:03;11.35;;;6.85;;
79478;SDS011;68943;49.472;17.970;2023-05-23T01:05:29;11.68;;;6.63;;
79478;SDS011;68943;49.472;17.970;2023-05-23T01:07:55;11.20;;;5.35;;
79478;SDS011;68943;49.472;17.970;2023-05-23T01:10:25;12.25;;;7.78;;
79478;SDS011;68943;49.472;17.970;2023-05-23T01:12:57;8.23;;;5.78;;
79478;SDS011;68943;49.472;17.970;2023-05-23T01:20:33;12.57;;;7.85;;
79478;SDS011;68943;49.472;17.970;2023-05-23T01:25:38;12.82;;;6.30;;
79478;SDS011;68943;49.472;17.970;2023-05-23T01:28:08;10.38;;;7.82;;
79478;SDS011;68943;49.472;17.970;2023-05-23T01:30:38;9.82;;;6.45;;
79478;SDS011;68943;49.472;17.970;2023-05-23T01:33:05;10.25;;;5.93;;
79478;SDS011;68943;49.472;17.970;2023-05-23T01:35:32;10.98;;;7.78;;
79478;SDS011;68943;49.472;17.970;2023-05-23T01:37:58;8.90;;;5.68;;
79478;SDS011;68943;49.472;17.970;2023-05-23T01:40:24;11.63;;;6.88;;
79478;SDS011;68943;49.472;17.970;2023-05-23T01:42:51;14.07;;;6.88;;
79478;SDS011;68943;49.472;17.970;2023-05-23T01:45:18;10.25;;;6.50;;
79478;SDS011;68943;49.472;17.970;2023-05-23T01:47:45;14.23;;;6.45;;
79478;SDS011;68943;49.472;17.970;2023-05-23T01:50:13;11.52;;;8.20;;
79478;SDS011;68943;49.472;17.970;2023-05-23T01:52:40;10.48;;;6.95;;
79478;SDS011;68943;49.472;17.970;2023-05-23T01:55:06;12.95;;;7.13;;
79478;SDS011;68943;49.472;17.970;2023-05-23T01:57:34;9.85;;;6.70;;
79478;SDS011;68943;49.472;17.970;2023-05-23T02:00:04;9.93;;;5.88;;
79478;SDS011;68943;49.472;17.970;2023-05-23T02:02:34;9.05;;;6.15;;
79478;SDS011;68943;49.472;17.970;2023-05-23T02:05:00;9.65;;;5.70;;
79478;SDS011;68943;49.472;17.970;2023-05-23T02:07:26;8.25;;;6.40;;
79478;SDS011;68943;49.472;17.970;2023-05-23T02:12:21;11.02;;;6.63;;
79478;SDS011;68943;49.472;17.970;2023-05-23T02:14:48;10.95;;;6.40;;
79478;SDS011;68943;49.472;17.970;2023-05-23T02:17:16;9.30;;;5.82;;
79478;SDS011;68943;49.472;17.970;2023-05-23T02:19:42;10.13;;;6.20;;
79478;SDS011;68943;49.472;17.970;2023-05-23T02:22:08;9.52;;;4.90;;
79478;SDS011;68943;49.472;17.970;2023-05-23T02:24:34;9.18;;;6.22;;
79478;SDS011;68943;49.472;17.970;2023-05-23T02:27:00;9.55;;;6.05;;
79478;SDS011;68943;49.472;17.970;2023-05-23T02:29:26;10.50;;;6.90;;
79478;SDS011;68943;49.472;17.970;2023-05-23T02:31:52;10.35;;;7.43;;
79478;SDS011;68943;49.472;17.970;2023-05-23T02:34:18;9.77;;;6.07;;
79478;SDS011;68943;49.472;17.970;2023-05-23T02:36:44;10.48;;;6.38;;
79478;SDS011;68943;49.472;17.970;2023-05-23T02:39:10;7.95;;;5.97;;
79478;SDS011;68943;49.472;17.970;2023-05-23T02:41:37;10.73;;;6.82;;
79478;SDS011;68943;49.472;17.970;2023-05-23T02:44:03;9.70;;;6.38;;
79478;SDS011;68943;49.472;17.970;2023-05-23T02:46:29;10.10;;;6.15;;
79478;SDS011;68943;49.472;17.970;2023-05-23T02:48:55;10.35;;;6.13;;
79478;SDS011;68943;49.472;17.970;2023-05-23T02:51:21;11.32;;;6.55;;
79478;SDS011;68943;49.472;17.970;2023-05-23T02:53:47;9.68;;;4.78;;
79478;SDS011;68943;49.472;17.970;2023-05-23T02:56:13;12.70;;;5.50;;
79478;SDS011;68943;49.472;17.970;2023-05-23T02:58:39;9.05;;;6.55;;
79478;SDS011;68943;49.472;17.970;2023-05-23T03:01:05;12.15;;;6.45;;
79478;SDS011;68943;49.472;17.970;2023-05-23T03:03:36;7.75;;;6.28;;
79478;SDS011;68943;49.472;17.970;2023-05-23T03:06:02;11.27;;;7.47;;
79478;SDS011;68943;49.472;17.970;2023-05-23T03:08:30;9.05;;;5.97;;
79478;SDS011;68943;49.472;17.970;2023-05-23T03:10:56;8.57;;;5.95;;
79478;SDS011;68943;49.472;17.970;2023-05-23T03:13:23;8.35;;;6.53;;
79478;SDS011;68943;49.472;17.970;2023-05-23T03:15:49;9.85;;;6.22;;
79478;SDS011;68943;49.472;17.970;2023-05-23T03:18:15;9.00;;;6.53;;
79478;SDS011;68943;49.472;17.970;2023-05-23T03:20:41;9.02;;;5.97;;
79478;SDS011;68943;49.472;17.970;2023-05-23T03:23:07;9.55;;;6.22;;
79478;SDS011;68943;49.472;17.970;2023-05-23T03:25:33;9.57;;;5.82;;
79478;SDS011;68943;49.472;17.970;2023-05-23T03:27:59;12.40;;;5.40;;
79478;SDS011;68943;49.472;17.970;2023-05-23T03:30:26;9.90;;;5.82;;
79478;SDS011;68943;49.472;17.970;2023-05-23T03:32:52;8.85;;;6.22;;
79478;SDS011;68943;49.472;17.970;2023-05-23T03:35:18;9.90;;;6.47;;
79478;SDS011;68943;49.472;17.970;2023-05-23T03:37:44;11.40;;;9.93;;
79478;SDS011;68943;49.472;17.970;2023-05-23T03:40:11;7.80;;;6.35;;
79478;SDS011;68943;49.472;17.970;2023-05-23T03:42:37;8.30;;;5.97;;
79478;SDS011;68943;49.472;17.970;2023-05-23T03:45:04;11.60;;;4.80;;
79478;SDS011;68943;49.472;17.970;2023-05-23T03:47:30;10.85;;;6.20;;
79478;SDS011;68943;49.472;17.970;2023-05-23T03:49:56;6.72;;;5.00;;
79478;SDS011;68943;49.472;17.970;2023-05-23T03:52:22;8.68;;;5.82;;
79478;SDS011;68943;49.472;17.970;2023-05-23T03:54:48;9.70;;;5.05;;
79478;SDS011;68943;49.472;17.970;2023-05-23T03:57:17;14.20;;;4.60;;
79478;SDS011;68943;49.472;17.970;2023-05-23T03:59:43;9.43;;;5.63;;
79478;SDS011;68943;49.472;17.970;2023-05-23T04:02:09;11.43;;;5.20;;
79478;SDS011;68943;49.472;17.970;2023-05-23T04:04:36;17.02;;;6.53;;
79478;SDS011;68943;49.472;17.970;2023-05-23T04:07:03;8.30;;;4.75;;
79478;SDS011;68943;49.472;17.970;2023-05-23T04:09:29;8.07;;;5.63;;
79478;SDS011;68943;49.472;17.970;2023-05-23T04:11:56;8.18;;;6.30;;
79478;SDS011;68943;49.472;17.970;2023-05-23T04:14:22;5.97;;;5.07;;
79478;SDS011;68943;49.472;17.970;2023-05-23T04:16:48;7.38;;;4.55;;
79478;SDS011;68943;49.472;17.970;2023-05-23T04:19:14;8.90;;;4.28;;
79478;SDS011;68943;49.472;17.970;2023-05-23T04:21:41;9.35;;;5.60;;
79478;SDS011;68943;49.472;17.970;2023-05-23T04:24:07;8.18;;;5.32;;
79478;SDS011;68943;49.472;17.970;2023-05-23T04:26:33;9.77;;;5.80;;
79478;SDS011;68943;49.472;17.970;2023-05-23T04:29:00;7.97;;;5.15;;
79478;SDS011;68943;49.472;17.970;2023-05-23T04:31:27;6.78;;;4.63;;
79478;SDS011;68943;49.472;17.970;2023-05-23T04:33:55;6.88;;;4.55;;
79478;SDS011;68943;49.472;17.970;2023-05-23T04:36:21;7.20;;;4.63;;
79478;SDS011;68943;49.472;17.970;2023-05-23T04:38:47;7.25;;;5.00;;
79478;SDS011;68943;49.472;17.970;2023-05-23T04:41:14;7.07;;;3.92;;
79478;SDS011;68943;49.472;17.970;2023-05-23T04:43:40;8.57;;;5.00;;
79478;SDS011;68943;49.472;17.970;2023-05-23T04:46:09;8.02;;;4.88;;
79478;SDS011;68943;49.472;17.970;2023-05-23T04:48:37;6.20;;;4.50;;
79478;SDS011;68943;49.472;17.970;2023-05-23T04:51:04;11.23;;;4.65;;
79478;SDS011;68943;49.472;17.970;2023-05-23T04:53:31;6.47;;;4.75;;
79478;SDS011;68943;49.472;17.970;2023-05-23T04:55:57;9.13;;;5.25;;
79478;SDS011;68943;49.472;17.970;2023-05-23T04:58:24;6.88;;;4.78;;
79478;SDS011;68943;49.472;17.970;2023-05-23T05:00:50;5.78;;;3.53;;
79478;SDS011;68943;49.472;17.970;2023-05-23T05:03:16;8.15;;;4.20;;
79478;SDS011;68943;49.472;17.970;2023-05-23T05:05:42;6.63;;;4.60;;
79478;SDS011;68943;49.472;17.970;2023-05-23T05:08:08;14.10;;;5.50;;
79478;SDS011;68943;49.472;17.970;2023-05-23T05:10:35;5.32;;;4.22;;
79478;SDS011;68943;49.472;17.970;2023-05-23T05:13:01;5.63;;;3.53;;
79478;SDS011;68943;49.472;17.970;2023-05-23T05:15:27;7.25;;;4.70;;
79478;SDS011;68943;49.472;17.970;2023-05-23T05:17:53;9.15;;;4.15;;
79478;SDS011;68943;49.472;17.970;2023-05-23T05:20:20;6.57;;;4.15;;
79478;SDS011;68943;49.472;17.970;2023-05-23T05:22:46;7.95;;;4.10;;
79478;SDS011;68943;49.472;17.970;2023-05-23T05:25:12;10.38;;;3.97;;
79478;SDS011;68943;49.472;17.970;2023-05-23T05:27:38;6.25;;;4.28;;
79478;SDS011;68943;49.472;17.970;2023-05-23T05:30:05;6.82;;;4.03;;
79478;SDS011;68943;49.472;17.970;2023-05-23T05:32:32;6.55;;;3.63;;
79478;SDS011;68943;49.472;17.970;2023-05-23T05:34:59;7.00;;;4.22;;
79478;SDS011;68943;49.472;17.970;2023-05-23T05:37:25;6.18;;;4.15;;
79478;SDS011;68943;49.472;17.970;2023-05-23T05:39:53;6.72;;;4.25;;
79478;SDS011;68943;49.472;17.970;2023-05-23T05:42:19;5.97;;;3.75;;
79478;SDS011;68943;49.472;17.970;2023-05-23T05:44:46;12.07;;;4.38;;
79478;SDS011;68943;49.472;17.970;2023-05-23T05:47:15;7.03;;;5.00;;
79478;SDS011;68943;49.472;17.970;2023-05-23T05:49:41;6.68;;;4.22;;
79478;SDS011;68943;49.472;17.970;2023-05-23T05:52:07;5.05;;;3.42;;
79478;SDS011;68943;49.472;17.970;2023-05-23T05:54:34;4.72;;;3.67;;
79478;SDS011;68943;49.472;17.970;2023-05-23T05:57:01;9.82;;;4.30;;
79478;SDS011;68943;49.472;17.970;2023-05-23T05:59:28;6.15;;;4.68;;
79478;SDS011;68943;49.472;17.970;2023-05-23T06:01:54;6.68;;;4.07;;
79478;SDS011;68943;49.472;17.970;2023-05-23T06:04:20;6.63;;;4.22;;
79478;SDS011;68943;49.472;17.970;2023-05-23T06:06:46;5.82;;;3.33;;
79478;SDS011;68943;49.472;17.970;2023-05-23T06:09:12;6.25;;;4.53;;
79478;SDS011;68943;49.472;17.970;2023-05-23T06:11:38;5.00;;;4.03;;
79478;SDS011;68943;49.472;17.970;2023-05-23T06:14:07;6.65;;;4.40;;
79478;SDS011;68943;49.472;17.970;2023-05-23T06:16:33;6.22;;;4.40;;
79478;SDS011;68943;49.472;17.970;2023-05-23T06:19:00;9.07;;;4.25;;
79478;SDS011;68943;49.472;17.970;2023-05-23T06:21:26;6.53;;;3.83;;
79478;SDS011;68943;49.472;17.970;2023-05-23T06:23:52;6.90;;;3.70;;
79478;SDS011;68943;49.472;17.970;2023-05-23T06:26:18;4.75;;;3.47;;
79478;SDS011;68943;49.472;17.970;2023-05-23T06:28:44;11.32;;;4.15;;
79478;SDS011;68943;49.472;17.970;2023-05-23T06:31:10;6.22;;;3.72;;
79478;SDS011;68943;49.472;17.970;2023-05-23T06:33:37;7.25;;;3.75;;
79478;SDS011;68943;49.472;17.970;2023-05-23T06:36:04;8.80;;;4.70;;
79478;SDS011;68943;49.472;17.970;2023-05-23T06:38:30;6.70;;;4.70;;
79478;SDS011;68943;49.472;17.970;2023-05-23T06:40:59;6.78;;;4.55;;
79478;SDS011;68943;49.472;17.970;2023-05-23T06:43:27;8.68;;;4.00;;
79478;SDS011;68943;49.472;17.970;2023-05-23T06:45:53;7.25;;;3.65;;
79478;SDS011;68943;49.472;17.970;2023-05-23T06:48:19;12.93;;;4.47;;
79478;SDS011;68943;49.472;17.970;2023-05-23T06:50:47;8.43;;;4.25;;
79478;SDS011;68943;49.472;17.970;2023-05-23T06:53:13;11.80;;;4.55;;
79478;SDS011;68943;49.472;17.970;2023-05-23T06:55:40;8.45;;;4.47;;
79478;SDS011;68943;49.472;17.970;2023-05-23T06:58:06;5.78;;;4.22;;
79478;SDS011;68943;49.472;17.970;2023-05-23T07:00:32;6.07;;;4.50;;
79478;SDS011;68943;49.472;17.970;2023-05-23T07:03:00;6.18;;;3.95;;
79478;SDS011;68943;49.472;17.970;2023-05-23T07:05:27;8.35;;;4.60;;
79478;SDS011;68943;49.472;17.970;2023-05-23T07:07:53;7.97;;;4.13;;
79478;SDS011;68943;49.472;17.970;2023-05-23T07:10:20;7.57;;;4.20;;
79478;SDS011;68943;49.472;17.970;2023-05-23T07:12:46;6.72;;;4.45;;
79478;SDS011;68943;49.472;17.970;2023-05-23T07:15:12;8.52;;;4.43;;
79478;SDS011;68943;49.472;17.970;2023-05-23T07:17:41;4.72;;;3.90;;
79478;SDS011;68943;49.472;17.970;2023-05-23T07:20:08;6.93;;;4.20;;
79478;SDS011;68943;49.472;17.970;2023-05-23T07:22:34;10.43;;;5.10;;
79478;SDS011;68943;49.472;17.970;2023-05-23T07:25:00;5.82;;;3.63;;
79478;SDS011;68943;49.472;17.970;2023-05-23T07:27:34;6.20;;;4.03;;
79478;SDS011;68943;49.472;17.970;2023-05-23T07:30:00;5.03;;;4.00;;
79478;SDS011;68943;49.472;17.970;2023-05-23T07:32:27;6.45;;;4.63;;
79478;SDS011;68943;49.472;17.970;2023-05-23T07:34:53;6.07;;;4.35;;
79478;SDS011;68943;49.472;17.970;2023-05-23T07:37:20;5.03;;;3.50;;
79478;SDS011;68943;49.472;17.970;2023-05-23T07:39:46;7.43;;;3.83;;
79478;SDS011;68943;49.472;17.970;2023-05-23T07:42:12;7.63;;;3.85;;
79478;SDS011;68943;49.472;17.970;2023-05-23T07:44:39;5.20;;;4.20;;
79478;SDS011;68943;49.472;17.970;2023-05-23T07:47:05;6.45;;;3.70;;
79478;SDS011;68943;49.472;17.970;2023-05-23T07:49:31;10.45;;;5.22;;
79478;SDS011;68943;49.472;17.970;2023-05-23T07:51:58;8.70;;;5.85;;
79478;SDS011;68943;49.472;17.970;2023-05-23T07:54:24;4.55;;;3.65;;
79478;SDS011;68943;49.472;17.970;2023-05-23T07:56:51;6.75;;;4.38;;
79478;SDS011;68943;49.472;17.970;2023-05-23T07:59:19;9.23;;;4.70;;
79478;SDS011;68943;49.472;17.970;2023-05-23T08:01:47;26.45;;;14.35;;
79478;SDS011;68943;49.472;17.970;2023-05-23T08:04:15;18.60;;;11.60;;
79478;SDS011;68943;49.472;17.970;2023-05-23T08:06:44;11.48;;;8.30;;
79478;SDS011;68943;49.472;17.970;2023-05-23T08:09:13;12.50;;;5.53;;
79478;SDS011;68943;49.472;17.970;2023-05-23T08:11:39;7.43;;;5.40;;
79478;SDS011;68943;49.472;17.970;2023-05-23T08:14:05;5.90;;;4.22;;
79478;SDS011;68943;49.472;17.970;2023-05-23T08:16:33;5.85;;;4.53;;
79478;SDS011;68943;49.472;17.970;2023-05-23T08:19:00;7.63;;;4.63;;
79478;SDS011;68943;49.472;17.970;2023-05-23T08:21:26;6.97;;;4.07;;
79478;SDS011;68943;49.472;17.970;2023-05-23T08:23:52;7.38;;;4.25;;
79478;SDS011;68943;49.472;17.970;2023-05-23T08:26:20;6.15;;;4.15;;
79478;SDS011;68943;49.472;17.970;2023-05-23T08:28:46;6.57;;;4.95;;
79478;SDS011;68943;49.472;17.970;2023-05-23T08:31:13;6.93;;;4.22;;
79478;SDS011;68943;49.472;17.970;2023-05-23T08:33:39;6.22;;;4.60;;
79478;SDS011;68943;49.472;17.970;2023-05-23T08:36:05;4.28;;;3.83;;
79478;SDS011;68943;49.472;17.970;2023-05-23T08:38:31;8.80;;;4.88;;
79478;SDS011;68943;49.472;17.970;2023-05-23T08:40:58;6.03;;;4.65;;
79478;SDS011;68943;49.472;17.970;2023-05-23T08:43:25;9.05;;;4.50;;
79478;SDS011;68943;49.472;17.970;2023-05-23T08:45:51;5.18;;;4.32;;
79478;SDS011;68943;49.472;17.970;2023-05-23T08:48:19;6.05;;;4.40;;
79478;SDS011;68943;49.472;17.970;2023-05-23T08:50:47;7.20;;;4.65;;
79478;SDS011;68943;49.472;17.970;2023-05-23T08:53:14;8.60;;;4.68;;
79478;SDS011;68943;49.472;17.970;2023-05-23T08:55:45;5.13;;;4.60;;
79478;SDS011;68943;49.472;17.970;2023-05-23T08:58:12;5.53;;;4.30;;
79478;SDS011;68943;49.472;17.970;2023-05-23T09:00:38;4.88;;;4.35;;
79478;SDS011;68943;49.472;17.970;2023-05-23T09:03:05;5.57;;;4.15;;
79478;SDS011;68943;49.472;17.970;2023-05-23T09:05:31;5.97;;;4.00;;
79478;SDS011;68943;49.472;17.970;2023-05-23T09:07:57;4.43;;;3.55;;
79478;SDS011;68943;49.472;17.970;2023-05-23T09:10:23;6.03;;;4.30;;
79478;SDS011;68943;49.472;17.970;2023-05-23T09:12:49;6.57;;;4.95;;
79478;SDS011;68943;49.472;17.970;2023-05-23T09:15:16;6.03;;;4.35;;
79478;SDS011;68943;49.472;17.970;2023-05-23T09:17:46;7.22;;;4.70;;
79478;SDS011;68943;49.472;17.970;2023-05-23T09:20:13;5.28;;;4.57;;
79478;SDS011;68943;49.472;17.970;2023-05-23T09:22:40;5.97;;;4.40;;
79478;SDS011;68943;49.472;17.970;2023-05-23T09:25:06;8.75;;;5.90;;
79478;SDS011;68943;49.472;17.970;2023-05-23T09:27:33;7.72;;;5.45;;
79478;SDS011;68943;49.472;17.970;2023-05-23T09:30:06;5.93;;;5.30;;
79478;SDS011;68943;49.472;17.970;2023-05-23T09:32:32;7.38;;;4.40;;
79478;SDS011;68943;49.472;17.970;2023-05-23T09:34:59;5.53;;;4.63;;
79478;SDS011;68943;49.472;17.970;2023-05-23T09:37:33;6.00;;;4.28;;
79478;SDS011;68943;49.472;17.970;2023-05-23T09:40:00;6.75;;;3.85;;
79478;SDS011;68943;49.472;17.970;2023-05-23T09:42:31;5.25;;;4.65;;
79478;SDS011;68943;49.472;17.970;2023-05-23T09:45:01;7.93;;;4.82;;
79478;SDS011;68943;49.472;17.970;2023-05-23T09:47:27;6.40;;;4.38;;
79478;SDS011;68943;49.472;17.970;2023-05-23T09:49:53;6.28;;;4.40;;
79478;SDS011;68943;49.472;17.970;2023-05-23T09:52:19;8.50;;;5.40;;
79478;SDS011;68943;49.472;17.970;2023-05-23T09:54:46;9.82;;;5.80;;
79478;SDS011;68943;49.472;17.970;2023-05-23T09:57:13;5.68;;;3.90;;
79478;SDS011;68943;49.472;17.970;2023-05-23T09:59:44;4.40;;;3.22;;
79478;SDS011;68943;49.472;17.970;2023-05-23T10:02:22;6.93;;;5.22;;
79478;SDS011;68943;49.472;17.970;2023-05-23T10:04:55;4.78;;;4.38;;
79478;SDS011;68943;49.472;17.970;2023-05-23T10:07:21;6.03;;;3.83;;
79478;SDS011;68943;49.472;17.970;2023-05-23T10:09:53;8.43;;;4.55;;
79478;SDS011;68943;49.472;17.970;2023-05-23T10:15:04;7.35;;;4.70;;
79478;SDS011;68943;49.472;17.970;2023-05-23T10:22:22;5.72;;;4.38;;
79478;SDS011;68943;49.472;17.970;2023-05-23T10:24:48;8.77;;;5.30;;
79478;SDS011;68943;49.472;17.970;2023-05-23T10:27:15;5.47;;;4.60;;
79478;SDS011;68943;49.472;17.970;2023-05-23T10:29:41;5.50;;;4.50;;
79478;SDS011;68943;49.472;17.970;2023-05-23T10:32:08;6.45;;;4.82;;
79478;SDS011;68943;49.472;17.970;2023-05-23T10:34:42;10.23;;;4.47;;
79478;SDS011;68943;49.472;17.970;2023-05-23T10:37:16;11.18;;;4.60;;
79478;SDS011;68943;49.472;17.970;2023-05-23T10:39:57;6.25;;;4.05;;
79478;SDS011;68943;49.472;17.970;2023-05-23T10:47:40;5.68;;;4.32;;
79478;SDS011;68943;49.472;17.970;2023-05-23T10:50:10;8.90;;;4.25;;
79478;SDS011;68943;49.472;17.970;2023-05-23T10:52:40;5.35;;;4.78;;
79478;SDS011;68943;49.472;17.970;2023-05-23T10:55:14;7.22;;;4.00;;
79478;SDS011;68943;49.472;17.970;2023-05-23T10:57:44;6.78;;;5.05;;
79478;SDS011;68943;49.472;17.970;2023-05-23T11:00:14;9.80;;;4.45;;
79478;SDS011;68943;49.472;17.970;2023-05-23T11:02:53;10.30;;;5.10;;
79478;SDS011;68943;49.472;17.970;2023-05-23T11:08:08;4.90;;;3.90;;
79478;SDS011;68943;49.472;17.970;2023-05-23T11:13:19;8.32;;;5.43;;
79478;SDS011;68943;49.472;17.970;2023-05-23T11:15:46;7.68;;;4.68;;
79478;SDS011;68943;49.472;17.970;2023-05-23T11:18:19;6.10;;;4.45;;
79478;SDS011;68943;49.472;17.970;2023-05-23T11:20:45;6.15;;;4.28;;
79478;SDS011;68943;49.472;17.970;2023-05-23T11:23:13;6.93;;;5.38;;
79478;SDS011;68943;49.472;17.970;2023-05-23T11:28:07;8.20;;;4.40;;
79478;SDS011;68943;49.472;17.970;2023-05-23T11:30:35;6.30;;;4.60;;
79478;SDS011;68943;49.472;17.970;2023-05-23T11:33:05;8.35;;;4.32;;
79478;SDS011;68943;49.472;17.970;2023-05-23T11:35:32;6.00;;;4.65;;
79478;SDS011;68943;49.472;17.970;2023-05-23T11:37:59;7.10;;;4.55;;
79478;SDS011;68943;49.472;17.970;2023-05-23T11:40:30;9.02;;;3.58;;
79478;SDS011;68943;49.472;17.970;2023-05-23T11:42:59;7.78;;;4.10;;
79478;SDS011;68943;49.472;17.970;2023-05-23T11:45:26;8.68;;;3.88;;
79478;SDS011;68943;49.472;17.970;2023-05-23T11:47:53;11.07;;;6.80;;
79478;SDS011;68943;49.472;17.970;2023-05-23T11:50:20;10.00;;;5.85;;
79478;SDS011;68943;49.472;17.970;2023-05-23T11:52:46;11.25;;;6.57;;
79478;SDS011;68943;49.472;17.970;2023-05-23T11:55:18;13.57;;;7.00;;
79478;SDS011;68943;49.472;17.970;2023-05-23T11:57:45;10.70;;;6.22;;
79478;SDS011;68943;49.472;17.970;2023-05-23T12:00:13;16.17;;;7.00;;
79478;SDS011;68943;49.472;17.970;2023-05-23T12:02:41;10.30;;;5.25;;
79478;SDS011;68943;49.472;17.970;2023-05-23T12:05:08;12.60;;;7.13;;
79478;SDS011;68943;49.472;17.970;2023-05-23T12:07:34;12.93;;;6.43;;
79478;SDS011;68943;49.472;17.970;2023-05-23T12:10:01;14.00;;;7.20;;
79478;SDS011;68943;49.472;17.970;2023-05-23T12:12:31;9.15;;;5.32;;
79478;SDS011;68943;49.472;17.970;2023-05-23T12:14:58;5.97;;;4.88;;
79478;SDS011;68943;49.472;17.970;2023-05-23T12:17:24;8.60;;;5.43;;
79478;SDS011;68943;49.472;17.970;2023-05-23T12:19:51;9.93;;;8.00;;
79478;SDS011;68943;49.472;17.970;2023-05-23T12:22:21;6.38;;;5.05;;
79478;SDS011;68943;49.472;17.970;2023-05-23T12:24:54;9.30;;;7.25;;
79478;SDS011;68943;49.472;17.970;2023-05-23T12:27:28;6.32;;;4.55;;
79478;SDS011;68943;49.472;17.970;2023-05-23T12:30:13;6.28;;;5.53;;
79478;SDS011;68943;49.472;17.970;2023-05-23T12:32:43;4.90;;;3.85;;
79478;SDS011;68943;49.472;17.970;2023-05-23T12:35:10;7.85;;;5.38;;
79478;SDS011;68943;49.472;17.970;2023-05-23T12:37:44;6.35;;;4.38;;
79478;SDS011;68943;49.472;17.970;2023-05-23T12:42:56;5.60;;;4.35;;
79478;SDS011;68943;49.472;17.970;2023-05-23T12:45:23;3.92;;;2.95;;
79478;SDS011;68943;49.472;17.970;2023-05-23T12:47:49;5.68;;;2.95;;
79478;SDS011;68943;49.472;17.970;2023-05-23T12:50:15;5.20;;;3.60;;
79478;SDS011;68943;49.472;17.970;2023-05-23T12:52:43;4.28;;;3.65;;
79478;SDS011;68943;49.472;17.970;2023-05-23T12:55:09;5.65;;;3.97;;
79478;SDS011;68943;49.472;17.970;2023-05-23T12:57:35;4.53;;;3.95;;
79478;SDS011;68943;49.472;17.970;2023-05-23T13:00:02;9.75;;;5.18;;
79478;SDS011;68943;49.472;17.970;2023-05-23T13:02:30;6.95;;;3.70;;
79478;SDS011;68943;49.472;17.970;2023-05-23T13:04:56;5.38;;;4.40;;
79478;SDS011;68943;49.472;17.970;2023-05-23T13:07:22;9.55;;;3.85;;
79478;SDS011;68943;49.472;17.970;2023-05-23T13:09:50;6.05;;;5.32;;
79478;SDS011;68943;49.472;17.970;2023-05-23T13:15:19;4.55;;;3.30;;
79478;SDS011;68943;49.472;17.970;2023-05-23T13:17:45;5.70;;;4.45;;
79478;SDS011;68943;49.472;17.970;2023-05-23T13:20:12;6.47;;;3.53;;
79478;SDS011;68943;49.472;17.970;2023-05-23T13:22:39;7.53;;;3.83;;
79478;SDS011;68943;49.472;17.970;2023-05-23T13:25:06;6.80;;;4.97;;
79478;SDS011;68943;49.472;17.970;2023-05-23T13:27:33;6.90;;;3.80;;
79478;SDS011;68943;49.472;17.970;2023-05-23T13:29:59;6.22;;;4.60;;
79478;SDS011;68943;49.472;17.970;2023-05-23T13:32:25;5.78;;;4.50;;
79478;SDS011;68943;49.472;17.970;2023-05-23T13:34:52;7.22;;;4.40;;
79478;SDS011;68943;49.472;17.970;2023-05-23T13:37:18;6.75;;;4.35;;
79478;SDS011;68943;49.472;17.970;2023-05-23T13:39:44;7.97;;;4.55;;
79478;SDS011;68943;49.472;17.970;2023-05-23T13:42:10;7.07;;;4.45;;
79478;SDS011;68943;49.472;17.970;2023-05-23T13:44:36;4.95;;;3.65;;
79478;SDS011;68943;49.472;17.970;2023-05-23T13:47:09;4.25;;;3.42;;
79478;SDS011;68943;49.472;17.970;2023-05-23T13:49:35;7.80;;;4.20;;
79478;SDS011;68943;49.472;17.970;2023-05-23T13:52:01;6.07;;;3.80;;
79478;SDS011;68943;49.472;17.970;2023-05-23T13:54:28;4.78;;;3.72;;
79478;SDS011;68943;49.472;17.970;2023-05-23T13:56:58;5.28;;;4.63;;
79478;SDS011;68943;49.472;17.970;2023-05-23T13:59:27;7.85;;;6.20;;
79478;SDS011;68943;49.472;17.970;2023-05-23T14:01:53;6.03;;;3.97;;
79478;SDS011;68943;49.472;17.970;2023-05-23T14:04:19;8.50;;;5.13;;
79478;SDS011;68943;49.472;17.970;2023-05-23T14:06:45;6.22;;;4.95;;
79478;SDS011;68943;49.472;17.970;2023-05-23T14:09:11;6.97;;;4.47;;
79478;SDS011;68943;49.472;17.970;2023-05-23T14:11:38;6.53;;;5.13;;
79478;SDS011;68943;49.472;17.970;2023-05-23T14:14:04;5.25;;;4.45;;
79478;SDS011;68943;49.472;17.970;2023-05-23T14:16:31;4.45;;;3.47;;
79478;SDS011;68943;49.472;17.970;2023-05-23T14:18:57;6.00;;;3.60;;
79478;SDS011;68943;49.472;17.970;2023-05-23T14:21:23;5.95;;;3.92;;
79478;SDS011;68943;49.472;17.970;2023-05-23T14:23:50;8.18;;;4.60;;
79478;SDS011;68943;49.472;17.970;2023-05-23T14:26:19;7.65;;;4.28;;
79478;SDS011;68943;49.472;17.970;2023-05-23T14:28:46;5.70;;;4.57;;
79478;SDS011;68943;49.472;17.970;2023-05-23T14:31:12;6.60;;;3.45;;
79478;SDS011;68943;49.472;17.970;2023-05-23T14:33:38;7.43;;;5.85;;
79478;SDS011;68943;49.472;17.970;2023-05-23T14:36:04;5.57;;;4.63;;
79478;SDS011;68943;49.472;17.970;2023-05-23T14:38:30;6.30;;;4.60;;
79478;SDS011;68943;49.472;17.970;2023-05-23T14:40:56;6.13;;;4.38;;
79478;SDS011;68943;49.472;17.970;2023-05-23T14:43:23;5.13;;;4.13;;
79478;SDS011;68943;49.472;17.970;2023-05-23T14:45:50;8.23;;;5.68;;
79478;SDS011;68943;49.472;17.970;2023-05-23T14:48:16;5.00;;;3.83;;
79478;SDS011;68943;49.472;17.970;2023-05-23T14:50:42;6.18;;;5.55;;
79478;SDS011;68943;49.472;17.970;2023-05-23T14:53:12;7.80;;;4.85;;
79478;SDS011;68943;49.472;17.970;2023-05-23T14:55:38;6.50;;;3.78;;
79478;SDS011;68943;49.472;17.970;2023-05-23T14:58:04;6.45;;;3.45;;
79478;SDS011;68943;49.472;17.970;2023-05-23T15:00:30;5.22;;;4.35;;
79478;SDS011;68943;49.472;17.970;2023-05-23T15:02:57;7.18;;;5.40;;
79478;SDS011;68943;49.472;17.970;2023-05-23T15:05:23;6.13;;;3.75;;
79478;SDS011;68943;49.472;17.970;2023-05-23T15:07:49;4.65;;;4.15;;